Time;durP1;ratioP1;P1;durP2;ratioP2;P2;SDS_P1;SDS_P2;PMS_P1;PMS_P2;Temp;Humidity;BMP_temperature;BMP_pressure;BME280_temperature;BME280_humidity;BME280_pressure;Samples;Min_cycle;Max_cycle;Signal;HPM_P1;HPM_P2
2023/07/09 00:00:51;;;;;;;3.55;2.90;;;26.10;75.90;;;;;;5050359;28;20248;-68
2023/07/09 00:03:24;;;;;;;4.25;3.08;;;26.10;75.10;;;;;;5038093;28;20240;-68
2023/07/09 00:05:50;;;;;;;4.00;3.03;;;26.00;75.60;;;;;;5038124;28;20177;-66
2023/07/09 00:08:33;;;;;;;4.93;2.80;;;26.00;75.50;;;;;;5055641;28;20362;-66
2023/07/09 00:10:59;;;;;;;4.13;3.05;;;25.90;76.70;;;;;;5035636;28;20220;-68
2023/07/09 00:13:27;;;;;;;4.13;3.13;;;25.90;76.60;;;;;;5049936;28;20174;-66
2023/07/09 00:16:07;;;;;;;4.35;3.08;;;25.80;76.10;;;;;;5048571;28;20198;-68
2023/07/09 00:18:35;;;;;;;6.00;3.28;;;25.70;77.30;;;;;;5036679;28;20242;-68
2023/07/09 00:21:01;;;;;;;4.90;3.20;;;25.70;76.40;;;;;;5049873;28;20272;-66
2023/07/09 00:23:27;;;;;;;3.67;3.00;;;25.60;76.70;;;;;;5050357;28;20237;-66
2023/07/09 00:25:53;;;;;;;4.60;3.42;;;25.50;77.00;;;;;;5037037;28;20277;-68
2023/07/09 00:28:20;;;;;;;4.55;3.63;;;25.50;77.40;;;;;;5036960;28;20185;-67
2023/07/09 00:30:46;;;;;;;4.70;3.20;;;25.40;77.50;;;;;;5034474;28;20197;-68
2023/07/09 00:33:21;;;;;;;4.18;3.10;;;25.40;77.80;;;;;;5037589;28;20244;-68
2023/07/09 00:35:50;;;;;;;4.72;3.25;;;25.30;78.70;;;;;;5036491;28;20246;-68
2023/07/09 00:38:23;;;;;;;5.13;3.20;;;25.20;78.30;;;;;;5036755;28;20192;-69
2023/07/09 00:41:02;;;;;;;6.43;3.30;;;25.20;79.40;;;;;;5053633;28;20213;-68
2023/07/09 00:43:36;;;;;;;4.85;3.10;;;25.10;80.30;;;;;;5037995;28;20260;-68
2023/07/09 00:46:16;;;;;;;5.78;3.42;;;25.00;80.30;;;;;;5038535;28;20161;-68
2023/07/09 00:48:43;;;;;;;3.92;3.13;;;24.90;81.20;;;;;;5061410;22;20221;-68
2023/07/09 00:51:15;;;;;;;5.03;3.38;;;24.90;80.00;;;;;;5013924;28;20202;-69
2023/07/09 00:53:45;;;;;;;3.92;3.53;;;24.80;81.00;;;;;;5018970;28;20180;-69
2023/07/09 00:56:25;;;;;;;4.75;3.85;;;24.80;80.70;;;;;;5032794;28;20182;-70
2023/07/09 00:58:54;;;;;;;4.50;3.30;;;24.70;82.00;;;;;;5013737;28;20175;-68
2023/07/09 01:01:21;;;;;;;5.85;3.47;;;24.70;81.30;;;;;;5016658;28;20528;-66
2023/07/09 01:03:57;;;;;;;3.80;3.17;;;24.70;81.40;;;;;;5018017;28;20272;-70
2023/07/09 01:06:35;;;;;;;5.20;3.30;;;24.70;82.40;;;;;;5027098;28;20205;-70
2023/07/09 01:09:03;;;;;;;5.97;3.40;;;24.60;83.00;;;;;;5026336;28;20222;-68
2023/07/09 01:11:30;;;;;;;4.65;3.33;;;24.60;82.50;;;;;;5026203;28;20461;-70
2023/07/09 01:13:59;;;;;;;4.15;3.13;;;24.60;82.50;;;;;;5013778;28;20182;-70
2023/07/09 01:16:32;;;;;;;5.05;3.55;;;24.50;82.80;;;;;;5013989;28;20214;-69
2023/07/09 01:19:00;;;;;;;4.65;3.47;;;24.50;83.40;;;;;;5013737;28;20277;-68
2023/07/09 01:21:26;;;;;;;4.93;3.40;;;24.40;83.00;;;;;;5012318;28;20189;-70
2023/07/09 01:23:57;;;;;;;5.68;4.18;;;24.40;83.40;;;;;;5017264;28;20182;-70
2023/07/09 01:26:29;;;;;;;5.20;3.95;;;24.40;84.40;;;;;;5017612;28;20174;-68
2023/07/09 01:28:56;;;;;;;6.28;3.88;;;24.30;84.40;;;;;;5013206;28;20205;-67
2023/07/09 01:31:23;;;;;;;4.13;3.53;;;24.30;84.50;;;;;;5032874;28;20194;-66
2023/07/09 01:33:53;;;;;;;4.80;3.45;;;24.20;84.60;;;;;;5016955;28;20272;-67
2023/07/09 01:36:24;;;;;;;5.15;3.50;;;24.20;85.00;;;;;;5016001;28;20190;-65
2023/07/09 01:38:56;;;;;;;3.92;3.45;;;24.10;85.80;;;;;;5013976;28;20245;-69
2023/07/09 01:41:22;;;;;;;4.65;3.47;;;24.10;86.20;;;;;;5016797;28;20186;-67
2023/07/09 01:43:48;;;;;;;5.15;4.03;;;24.10;86.00;;;;;;5033022;28;20449;-68
2023/07/09 01:46:14;;;;;;;8.32;3.97;;;24.00;86.30;;;;;;5011967;28;20189;-67
2023/07/09 01:48:42;;;;;;;5.15;3.95;;;24.00;86.80;;;;;;5015726;28;20190;-68
2023/07/09 01:51:10;;;;;;;4.85;4.00;;;23.90;87.10;;;;;;5015912;28;20213;-69
2023/07/09 01:53:40;;;;;;;5.00;3.72;;;23.90;87.60;;;;;;5016575;28;20174;-68
2023/07/09 01:56:08;;;;;;;5.28;4.18;;;23.90;87.90;;;;;;5016608;28;20193;-65
2023/07/09 01:58:41;;;;;;;5.40;3.83;;;23.90;88.30;;;;;;5024178;28;20166;-64
2023/07/09 02:01:11;;;;;;;4.22;3.40;;;23.80;88.60;;;;;;5015247;28;20198;-69
2023/07/09 02:03:37;;;;;;;5.03;3.55;;;23.80;89.80;;;;;;5014552;28;20229;-69
2023/07/09 02:06:09;;;;;;;5.55;3.67;;;23.70;89.40;;;;;;5018622;28;20224;-69
2023/07/09 02:08:37;;;;;;;5.20;3.50;;;23.70;89.90;;;;;;5025580;28;20193;-68
2023/07/09 02:11:03;;;;;;;4.28;3.63;;;23.60;90.10;;;;;;5019845;28;20469;-69
2023/07/09 02:13:29;;;;;;;6.47;4.90;;;23.60;90.40;;;;;;5019681;28;20690;-65
2023/07/09 02:15:54;;;;;;;6.18;4.57;;;23.50;90.90;;;;;;5019641;28;20468;-66
2023/07/09 02:18:20;;;;;;;5.43;4.20;;;23.50;90.80;;;;;;5018311;28;20178;-67
2023/07/09 02:20:46;;;;;;;5.70;4.05;;;23.40;91.00;;;;;;5015809;28;20197;-67
2023/07/09 02:23:12;;;;;;;5.82;4.00;;;23.40;91.30;;;;;;5033936;28;20288;-66
2023/07/09 02:25:40;;;;;;;6.97;3.83;;;23.30;91.60;;;;;;5034546;28;20221;-66
2023/07/09 02:28:06;;;;;;;5.43;3.90;;;23.30;91.90;;;;;;5035974;28;20189;-69
2023/07/09 02:30:34;;;;;;;4.65;3.80;;;23.30;92.10;;;;;;5027404;28;20186;-68
2023/07/09 02:32:59;;;;;;;4.95;3.90;;;23.30;92.40;;;;;;5017782;28;20178;-68
2023/07/09 02:35:25;;;;;;;5.13;3.80;;;23.20;92.60;;;;;;5019558;28;20205;-65
2023/07/09 02:37:50;;;;;;;4.60;3.53;;;23.20;93.00;;;;;;5033795;28;20237;-65
2023/07/09 02:40:18;;;;;;;4.95;3.60;;;23.20;93.20;;;;;;5013984;28;20210;-68
2023/07/09 02:42:44;;;;;;;3.83;3.42;;;23.20;93.80;;;;;;5022140;28;20288;-69
2023/07/09 02:45:10;;;;;;;4.85;3.60;;;23.20;93.80;;;;;;5018585;28;20343;-68
2023/07/09 02:47:38;;;;;;;4.60;3.78;;;23.10;94.10;;;;;;5018637;28;20186;-62
2023/07/09 02:50:04;;;;;;;7.93;3.65;;;23.10;94.30;;;;;;5018459;28;20281;-68
2023/07/09 02:52:30;;;;;;;4.28;3.38;;;23.10;94.70;;;;;;5016693;28;20263;-68
2023/07/09 02:54:56;;;;;;;4.90;3.60;;;23.10;95.00;;;;;;5017937;28;20261;-68
2023/07/09 02:57:27;;;;;;;4.13;3.25;;;23.00;95.20;;;;;;5018051;28;20237;-68
2023/07/09 02:59:52;;;;;;;5.45;3.28;;;23.00;95.90;;;;;;5025497;28;20178;-65
2023/07/09 03:02:18;;;;;;;5.28;3.50;;;23.00;95.70;;;;;;5020584;28;20312;-67
2023/07/09 03:04:46;;;;;;;4.75;3.47;;;23.00;96.10;;;;;;5018933;28;20182;-66
2023/07/09 03:07:14;;;;;;;4.88;3.70;;;22.90;96.30;;;;;;5037047;28;20369;-68
2023/07/09 03:09:39;;;;;;;4.10;3.13;;;22.90;96.90;;;;;;5019408;28;20174;-68
2023/07/09 03:12:06;;;;;;;4.35;3.67;;;22.90;96.80;;;;;;5036438;28;20197;-68
2023/07/09 03:14:32;;;;;;;4.75;3.72;;;22.90;97.10;;;;;;5036601;28;20193;-68
2023/07/09 03:16:58;;;;;;;4.30;3.47;;;22.80;97.50;;;;;;5036052;28;20370;-68
2023/07/09 03:19:23;;;;;;;4.82;3.75;;;22.80;97.70;;;;;;5032976;28;20249;-67
2023/07/09 03:21:49;;;;;;;5.38;3.42;;;22.80;98.10;;;;;;5020194;28;20262;-65
2023/07/09 03:24:18;;;;;;;4.68;3.55;;;22.80;98.40;;;;;;5014463;28;20268;-68
2023/07/09 03:26:44;;;;;;;4.93;3.60;;;22.80;98.60;;;;;;5036876;28;20174;-63
2023/07/09 03:29:15;;;;;;;5.57;3.33;;;22.80;98.90;;;;;;5019931;28;20182;-69
2023/07/09 03:31:43;;;;;;;5.15;3.60;;;22.80;99.70;;;;;;5019371;28;20282;-66
2023/07/09 03:34:09;;;;;;;4.40;3.22;;;22.80;99.40;;;;;;5036699;28;20208;-68
2023/07/09 03:36:37;;;;;;;5.03;3.70;;;22.80;99.70;;;;;;5036271;28;20182;-69
2023/07/09 03:39:03;;;;;;;5.47;3.30;;;22.80;99.90;;;;;;5018567;28;20174;-66
2023/07/09 03:41:28;;;;;;;4.38;3.28;;;22.80;99.90;;;;;;5033704;28;20201;-67
2023/07/09 03:43:56;;;;;;;3.92;3.13;;;22.80;99.90;;;;;;5014194;28;20202;-68
2023/07/09 03:46:24;;;;;;;4.78;3.33;;;22.80;99.90;;;;;;5017500;28;20186;-69
2023/07/09 03:48:50;;;;;;;4.82;3.38;;;22.80;99.90;;;;;;5031797;28;20189;-69
2023/07/09 03:51:16;;;;;;;5.85;3.70;;;22.80;99.90;;;;;;5014555;28;20197;-68
2023/07/09 03:53:44;;;;;;;3.55;3.03;;;22.80;99.90;;;;;;5018179;28;20267;-65
2023/07/09 03:56:12;;;;;;;4.93;3.58;;;22.80;99.90;;;;;;5017970;28;20481;-68
2023/07/09 03:58:38;;;;;;;5.18;3.47;;;22.80;99.90;;;;;;5016151;28;20205;-68
2023/07/09 04:01:06;;;;;;;4.75;3.63;;;22.80;99.90;;;;;;5018351;28;20212;-68
2023/07/09 04:03:34;;;;;;;4.72;3.47;;;22.80;99.90;;;;;;5017112;28;20193;-68
2023/07/09 04:05:59;;;;;;;6.70;3.50;;;22.80;99.90;;;;;;5017704;28;20205;-68
2023/07/09 04:08:27;;;;;;;4.57;3.65;;;22.80;99.90;;;;;;5017278;28;20171;-69
2023/07/09 04:10:58;;;;;;;4.32;3.47;;;22.80;99.90;;;;;;5017712;28;20201;-69
2023/07/09 04:13:27;;;;;;;5.20;3.55;;;22.80;99.90;;;;;;5016042;28;20214;-67
2023/07/09 04:15:55;;;;;;;4.25;3.45;;;22.80;99.90;;;;;;5016949;28;20446;-67
2023/07/09 04:18:21;;;;;;;4.32;3.40;;;22.90;99.90;;;;;;5017471;28;20448;-67
2023/07/09 04:20:51;;;;;;;4.63;3.47;;;22.90;99.90;;;;;;5018227;28;20750;-66
2023/07/09 04:23:17;;;;;;;3.15;2.85;;;22.90;99.90;;;;;;5015854;28;20185;-65
2023/07/09 04:25:42;;;;;;;6.00;3.35;;;22.90;99.90;;;;;;5023471;28;20207;-69
2023/07/09 04:28:08;;;;;;;4.88;3.28;;;23.00;99.90;;;;;;5017406;28;20170;-68
2023/07/09 04:30:34;;;;;;;5.07;3.45;;;23.00;99.90;;;;;;5018636;28;20189;-69
2023/07/09 04:33:00;;;;;;;6.28;3.92;;;23.00;99.90;;;;;;5016876;28;20217;-67
2023/07/09 04:35:27;;;;;;;5.57;3.30;;;23.00;99.90;;;;;;5033912;28;20209;-70
2023/07/09 04:37:55;;;;;;;12.57;10.15;;;23.10;99.90;;;;;;5017279;28;20169;-69
2023/07/09 04:40:23;;;;;;;8.60;7.35;;;23.10;99.90;;;;;;5022032;28;20181;-69
2023/07/09 04:42:49;;;;;;;6.15;5.50;;;23.20;99.90;;;;;;5022369;28;20179;-69
2023/07/09 04:45:14;;;;;;;5.15;4.00;;;23.20;99.90;;;;;;5019085;28;20201;-68
2023/07/09 04:47:43;;;;;;;5.38;3.97;;;23.20;99.90;;;;;;5016951;28;20185;-68
2023/07/09 04:50:10;;;;;;;6.45;3.70;;;23.20;99.90;;;;;;5016698;28;20202;-65
2023/07/09 04:52:36;;;;;;;4.65;3.60;;;23.20;99.90;;;;;;5014401;28;20212;-69
2023/07/09 04:55:07;;;;;;;4.90;3.58;;;23.30;99.90;;;;;;5016620;28;20248;-69
2023/07/09 04:57:33;;;;;;;4.15;3.40;;;23.30;99.90;;;;;;5015907;28;20220;-69
2023/07/09 05:00:04;;;;;;;4.13;3.03;;;23.30;99.90;;;;;;5017142;28;20390;-69
2023/07/09 05:02:30;;;;;;;5.85;4.80;;;23.40;99.90;;;;;;4999431;28;20186;-68
2023/07/09 05:04:56;;;;;;;7.90;5.22;;;23.40;99.90;;;;;;5012215;28;20182;-69
2023/07/09 05:07:21;;;;;;;5.25;4.00;;;23.50;99.90;;;;;;5035183;28;20231;-68
2023/07/09 05:09:49;;;;;;;5.85;3.83;;;23.50;99.90;;;;;;5017922;28;20206;-70
2023/07/09 05:12:15;;;;;;;5.97;3.60;;;23.60;99.90;;;;;;5030705;28;20202;-70
2023/07/09 05:14:40;;;;;;;5.97;3.70;;;23.60;99.90;;;;;;5005565;28;20182;-69
2023/07/09 05:17:09;;;;;;;5.82;3.45;;;23.60;99.90;;;;;;5027897;28;20221;-69
2023/07/09 05:19:35;;;;;;;5.28;4.32;;;23.70;99.90;;;;;;4999008;28;20177;-69
2023/07/09 05:22:01;;;;;;;7.50;5.00;;;23.70;99.90;;;;;;5017847;28;20288;-70
2023/07/09 05:24:26;;;;;;;5.95;3.97;;;23.80;99.90;;;;;;5033226;28;20205;-67
2023/07/09 05:26:55;;;;;;;6.22;4.18;;;23.80;99.90;;;;;;5017060;28;20259;-69
2023/07/09 05:29:21;;;;;;;6.05;4.20;;;23.90;99.90;;;;;;5013019;28;20178;-69
2023/07/09 05:31:47;;;;;;;5.05;3.78;;;23.90;99.90;;;;;;5031214;28;20270;-69
2023/07/09 05:34:13;;;;;;;5.50;3.60;;;24.00;99.90;;;;;;5017244;28;20273;-70
2023/07/09 05:36:41;;;;;;;4.30;3.53;;;24.00;99.90;;;;;;5018636;28;20174;-70
2023/07/09 05:39:07;;;;;;;5.13;3.67;;;24.00;99.90;;;;;;5020528;28;20229;-65
2023/07/09 05:41:32;;;;;;;4.30;3.33;;;24.10;99.90;;;;;;5015083;28;20398;-68
2023/07/09 05:44:00;;;;;;;4.65;3.80;;;24.10;99.90;;;;;;5016571;28;20193;-70
2023/07/09 05:46:28;;;;;;;5.78;4.07;;;24.20;99.90;;;;;;5018627;28;20221;-67
2023/07/09 05:48:53;;;;;;;4.35;3.75;;;24.30;99.90;;;;;;5014656;28;20190;-69
2023/07/09 05:51:21;;;;;;;6.55;3.67;;;24.30;99.90;;;;;;5031808;28;20336;-70
2023/07/09 05:53:54;;;;;;;4.82;3.65;;;24.40;99.90;;;;;;5015043;28;20178;-70
2023/07/09 05:56:24;;;;;;;3.67;3.10;;;24.50;99.90;;;;;;5019290;28;20178;-70
2023/07/09 05:58:52;;;;;;;6.53;3.67;;;24.50;99.90;;;;;;5016823;28;20204;-69
2023/07/09 06:01:20;;;;;;;4.20;3.22;;;24.60;99.90;;;;;;5015028;28;20185;-69
2023/07/09 06:03:46;;;;;;;4.20;3.42;;;24.60;99.90;;;;;;5017082;28;20221;-68
2023/07/09 06:06:12;;;;;;;4.25;3.42;;;24.70;99.90;;;;;;5012689;28;20212;-66
2023/07/09 06:08:40;;;;;;;6.20;3.40;;;24.70;99.90;;;;;;5016397;28;20726;-67
2023/07/09 06:11:07;;;;;;;5.18;3.47;;;24.80;99.90;;;;;;5015020;28;20202;-66
2023/07/09 06:13:37;;;;;;;5.53;3.40;;;24.80;99.90;;;;;;5016323;28;20177;-66
2023/07/09 06:16:06;;;;;;;4.03;3.50;;;24.90;99.90;;;;;;5030759;28;20235;-67
2023/07/09 06:18:31;;;;;;;9.27;6.93;;;25.00;99.90;;;;;;5019070;28;20257;-66
2023/07/09 06:20:59;;;;;;;6.07;3.97;;;25.00;99.90;;;;;;5033170;28;20278;-66
2023/07/09 06:23:25;;;;;;;4.53;3.83;;;25.10;99.90;;;;;;5015882;28;20198;-66
2023/07/09 06:25:54;;;;;;;4.55;3.97;;;25.10;99.90;;;;;;5012495;28;20177;-65
2023/07/09 06:28:28;;;;;;;3.47;3.17;;;25.20;99.90;;;;;;5013991;28;20185;-66
2023/07/09 06:30:55;;;;;;;4.18;3.22;;;25.20;99.90;;;;;;5016250;28;20181;-65
2023/07/09 06:33:20;;;;;;;4.85;3.35;;;25.30;99.90;;;;;;5012539;28;20183;-66
2023/07/09 06:35:53;;;;;;;5.78;3.53;;;25.30;99.90;;;;;;5016215;28;20232;-66
2023/07/09 06:38:22;;;;;;;4.85;3.45;;;25.40;99.90;;;;;;5015104;28;20182;-65
2023/07/09 06:40:50;;;;;;;5.78;3.58;;;25.40;99.90;;;;;;5019811;28;20204;-66
2023/07/09 06:43:19;;;;;;;3.58;3.13;;;25.50;99.90;;;;;;5015209;28;20174;-66
2023/07/09 06:45:55;;;;;;;5.13;3.03;;;25.50;99.90;;;;;;5010444;28;20167;-66
2023/07/09 06:48:22;;;;;;;4.80;3.75;;;25.60;99.90;;;;;;5014686;28;20209;-66
2023/07/09 06:50:48;;;;;;;4.18;3.00;;;25.70;99.90;;;;;;5018772;28;20171;-66
2023/07/09 06:53:16;;;;;;;5.03;3.38;;;25.70;99.90;;;;;;5018932;28;20186;-66
2023/07/09 06:55:42;;;;;;;4.28;3.30;;;25.80;99.90;;;;;;5018946;28;20171;-67
2023/07/09 06:58:12;;;;;;;5.70;3.55;;;25.90;99.90;;;;;;5019684;28;20184;-66
2023/07/09 07:00:38;;;;;;;4.70;3.00;;;25.90;99.90;;;;;;5023634;28;20189;-67
2023/07/09 07:03:08;;;;;;;3.78;3.20;;;26.00;99.90;;;;;;5037237;28;20255;-66
2023/07/09 07:05:35;;;;;;;4.22;3.17;;;26.10;99.90;;;;;;5023159;28;20264;-66
2023/07/09 07:08:06;;;;;;;4.82;3.33;;;26.10;99.90;;;;;;5033937;28;20189;-66
2023/07/09 07:10:32;;;;;;;4.30;3.13;;;26.20;99.90;;;;;;5020593;28;20162;-66
2023/07/09 07:12:57;;;;;;;4.05;3.35;;;26.30;99.90;;;;;;5020625;28;20279;-66
2023/07/09 07:15:25;;;;;;;4.63;3.28;;;26.40;99.90;;;;;;5020487;28;20182;-66
2023/07/09 07:17:51;;;;;;;5.22;3.20;;;26.40;99.90;;;;;;5020629;28;20239;-66
2023/07/09 07:20:17;;;;;;;4.25;2.95;;;26.50;99.90;;;;;;5020725;28;20205;-66
2023/07/09 07:22:43;;;;;;;3.60;2.80;;;26.60;99.90;;;;;;5020485;28;20177;-68
2023/07/09 07:25:09;;;;;;;5.03;2.95;;;26.70;99.90;;;;;;5020602;28;20202;-66
2023/07/09 07:27:38;;;;;;;3.97;2.80;;;26.70;99.90;;;;;;5019939;28;20196;-67
2023/07/09 07:30:09;;;;;;;5.60;3.10;;;26.80;99.90;;;;;;5036958;28;20205;-67
2023/07/09 07:32:38;;;;;;;4.93;3.63;;;26.90;99.90;;;;;;5030784;28;20194;-67
2023/07/09 07:35:06;;;;;;;4.95;2.95;;;27.00;99.90;;;;;;5016654;28;20189;-66
2023/07/09 07:37:32;;;;;;;3.92;2.92;;;27.10;99.90;;;;;;5018728;28;20177;-67
2023/07/09 07:39:58;;;;;;;4.53;3.42;;;27.20;99.90;;;;;;5016784;28;20166;-68
2023/07/09 07:42:23;;;;;;;4.05;3.33;;;27.30;99.90;;;;;;5018447;28;20229;-67
2023/07/09 07:44:49;;;;;;;4.57;3.30;;;27.30;99.90;;;;;;5017479;28;20277;-66
2023/07/09 07:47:18;;;;;;;4.03;3.10;;;27.40;99.90;;;;;;5018538;28;20182;-67
2023/07/09 07:49:46;;;;;;;4.07;3.03;;;27.60;99.90;;;;;;5015030;28;20451;-67
2023/07/09 07:52:12;;;;;;;4.05;3.15;;;27.70;99.90;;;;;;5025680;28;20197;-67
2023/07/09 07:54:42;;;;;;;5.15;3.10;;;27.70;99.90;;;;;;5014121;28;20201;-67
2023/07/09 07:57:10;;;;;;;3.22;2.90;;;27.80;99.90;;;;;;5018070;28;20186;-67
2023/07/09 07:59:36;;;;;;;5.25;2.80;;;27.90;99.90;;;;;;5016107;28;20208;-68
2023/07/09 08:02:05;;;;;;;3.85;2.92;;;28.00;99.90;;;;;;5017086;28;20277;-67
2023/07/09 08:04:33;;;;;;;5.63;3.15;;;28.10;99.90;;;;;;5032936;28;20197;-67
2023/07/09 08:06:59;;;;;;;3.63;2.97;;;28.20;99.90;;;;;;5021047;28;20202;-67
2023/07/09 08:09:27;;;;;;;4.30;3.22;;;28.30;99.90;;;;;;5015121;28;20208;-67
2023/07/09 08:11:53;;;;;;;4.25;3.15;;;28.40;99.90;;;;;;5020689;28;20201;-67
2023/07/09 08:14:22;;;;;;;3.97;3.03;;;28.50;99.90;;;;;;5009326;28;20204;-67
2023/07/09 08:16:48;;;;;;;3.85;3.05;;;28.60;99.90;;;;;;5021800;28;20175;-67
2023/07/09 08:19:13;;;;;;;4.15;3.55;;;28.60;99.90;;;;;;5015897;28;20201;-67
2023/07/09 08:21:41;;;;;;;3.63;3.10;;;28.80;99.90;;;;;;5015815;28;20211;-66
2023/07/09 08:24:12;;;;;;;4.75;3.33;;;28.80;99.90;;;;;;5017305;28;20265;-67
2023/07/09 08:26:37;;;;;;;4.10;3.13;;;28.90;99.70;;;;;;5017344;28;20205;-66
2023/07/09 08:29:06;;;;;;;5.07;3.40;;;29.00;99.70;;;;;;5017745;28;20188;-67
2023/07/09 08:31:33;;;;;;;3.88;3.05;;;29.10;99.20;;;;;;5014648;28;20204;-66
2023/07/09 08:33:59;;;;;;;3.53;2.97;;;29.20;99.30;;;;;;5018167;28;20182;-67
2023/07/09 08:36:27;;;;;;;4.07;3.20;;;29.30;99.10;;;;;;5012009;28;20382;-67
2023/07/09 08:38:53;;;;;;;4.13;3.15;;;29.40;98.80;;;;;;5021160;28;20194;-68
2023/07/09 08:41:48;;;;;;;3.85;3.15;;;29.50;98.80;;;;;;5021871;28;20174;-67
2023/07/09 08:44:39;;;;;;;3.83;3.22;;;29.60;98.20;;;;;;5029831;28;20193;-68
2023/07/09 08:47:22;;;;;;;4.07;3.20;;;29.70;98.40;;;;;;4997877;28;20190;-69
2023/07/09 08:49:54;;;;;;;3.90;3.35;;;29.80;98.00;;;;;;4999330;28;20197;-68
2023/07/09 08:52:43;;;;;;;4.53;3.28;;;29.90;97.90;;;;;;5015981;28;20206;-66
2023/07/09 08:55:14;;;;;;;5.68;2.95;;;30.00;97.80;;;;;;4999146;28;20372;-67
2023/07/09 08:57:50;;;;;;;3.97;2.90;;;30.10;97.90;;;;;;4998657;28;20206;-66
2023/07/09 09:00:26;;;;;;;3.88;3.03;;;30.20;97.40;;;;;;5015307;28;20169;-66
2023/07/09 09:02:57;;;;;;;3.33;2.80;;;30.30;97.60;;;;;;5033886;28;20266;-66
2023/07/09 09:05:27;;;;;;;4.15;3.50;;;30.40;97.30;;;;;;5017765;28;20185;-66
2023/07/09 09:08:02;;;;;;;4.90;3.35;;;30.50;97.10;;;;;;5034014;28;20181;-67
2023/07/09 09:10:48;;;;;;;4.85;3.22;;;30.60;96.60;;;;;;5015692;28;20188;-67
2023/07/09 09:13:18;;;;;;;4.28;3.00;;;30.70;96.60;;;;;;5017810;28;20193;-66
2023/07/09 09:15:46;;;;;;;5.18;2.95;;;30.80;96.80;;;;;;5014024;28;20332;-67
2023/07/09 09:18:27;;;;;;;3.28;2.83;;;30.90;96.80;;;;;;5011252;28;20181;-68
2023/07/09 09:21:01;;;;;;;3.55;3.17;;;31.00;96.20;;;;;;5014727;28;20163;-67
2023/07/09 09:23:39;;;;;;;3.97;3.58;;;31.10;96.20;;;;;;5029635;28;20177;-66
2023/07/09 09:26:16;;;;;;;4.10;3.35;;;31.20;95.90;;;;;;5007391;28;20236;-66
2023/07/09 09:28:42;;;;;;;4.28;3.60;;;31.30;95.80;;;;;;5018068;28;20223;-66
2023/07/09 09:31:11;;;;;;;4.10;3.20;;;31.40;95.80;;;;;;5017829;28;20205;-67
2023/07/09 09:33:44;;;;;;;3.67;2.88;;;31.50;95.30;;;;;;5010246;28;20174;-67
2023/07/09 09:36:26;;;;;;;3.45;3.15;;;31.70;95.00;;;;;;5009710;28;20347;-67
2023/07/09 09:38:52;;;;;;;3.92;3.10;;;31.70;94.40;;;;;;5012881;28;20178;-67
2023/07/09 09:41:24;;;;;;;4.38;2.95;;;31.90;94.80;;;;;;5011716;28;20269;-67
2023/07/09 09:43:57;;;;;;;4.75;3.30;;;32.00;94.50;;;;;;5015349;28;20272;-68
2023/07/09 09:46:28;;;;;;;4.32;3.28;;;32.10;94.00;;;;;;5014955;28;20228;-67
2023/07/09 09:48:56;;;;;;;3.83;3.20;;;32.30;94.20;;;;;;5031270;28;20695;-67
2023/07/09 09:51:26;;;;;;;3.97;2.80;;;32.40;94.20;;;;;;5013579;28;20205;-66
2023/07/09 09:53:57;;;;;;;3.03;2.72;;;32.50;93.90;;;;;;5014219;28;20176;-67
2023/07/09 09:56:41;;;;;;;4.38;3.28;;;32.70;93.60;;;;;;5019418;28;20208;-67
2023/07/09 09:59:20;;;;;;;3.35;2.88;;;32.80;92.50;;;;;;5009387;28;20193;-66
2023/07/09 10:01:48;;;;;;;3.75;2.88;;;32.90;92.60;;;;;;5031722;28;20197;-66
2023/07/09 10:04:18;;;;;;;3.10;2.63;;;33.10;93.00;;;;;;5016486;28;20181;-65
2023/07/09 10:06:50;;;;;;;3.17;2.83;;;33.20;92.40;;;;;;5013023;28;20181;-65
2023/07/09 10:09:25;;;;;;;4.38;2.70;;;33.40;92.00;;;;;;5016027;28;20355;-65
2023/07/09 10:12:03;;;;;;;3.13;2.60;;;33.50;91.70;;;;;;5016058;28;20298;-64
2023/07/09 10:14:29;;;;;;;2.83;2.50;;;33.70;91.20;;;;;;5026508;28;20201;-65
2023/07/09 10:17:13;;;;;;;3.45;2.63;;;33.80;90.90;;;;;;5016584;28;20200;-66
2023/07/09 10:19:59;;;;;;;3.58;2.75;;;34.00;89.90;;;;;;5013380;28;20201;-65
2023/07/09 10:22:43;;;;;;;3.60;2.70;;;34.10;88.00;;;;;;5014898;28;20177;-66
2023/07/09 10:25:27;;;;;;;4.25;3.08;;;34.20;88.80;;;;;;5022302;28;20177;-64
2023/07/09 10:28:23;;;;;;;3.45;2.80;;;34.30;85.60;;;;;;5036301;28;20200;-65
2023/07/09 10:31:01;;;;;;;4.53;3.08;;;34.40;82.30;;;;;;5031958;28;20185;-65
2023/07/09 10:33:41;;;;;;;3.35;2.90;;;34.50;86.00;;;;;;5037587;28;20184;-64
2023/07/09 10:36:24;;;;;;;4.10;2.72;;;34.70;83.70;;;;;;5032298;28;20174;-65
2023/07/09 10:39:08;;;;;;;5.05;2.75;;;34.80;82.80;;;;;;5019924;28;20320;-64
2023/07/09 10:41:39;;;;;;;3.65;2.90;;;34.90;81.30;;;;;;5020572;28;20188;-65
2023/07/09 10:44:28;;;;;;;2.97;2.60;;;35.10;81.70;;;;;;5020948;28;20219;-65
2023/07/09 10:47:02;;;;;;;3.80;2.90;;;35.30;79.40;;;;;;5020439;28;20174;-65
2023/07/09 10:49:33;;;;;;;3.53;3.08;;;35.50;78.70;;;;;;5020349;28;20201;-65
2023/07/09 10:52:47;;;;;;;3.75;2.50;;;35.70;78.30;;;;;;5019824;28;20205;-65
2023/07/09 10:55:57;;;;;;;2.92;2.35;;;35.90;73.90;;;;;;5017699;28;20181;-65
2023/07/09 10:58:34;;;;;;;3.30;2.58;;;36.30;76.80;;;;;;4980016;28;20193;-65
2023/07/09 11:01:00;;;;;;;3.15;2.35;;;36.50;78.50;;;;;;4979815;28;20232;-65
2023/07/09 11:03:39;;;;;;;3.45;2.63;;;36.80;77.20;;;;;;5016120;28;20186;-65
2023/07/09 11:06:16;;;;;;;3.90;2.65;;;37.00;69.40;;;;;;5017519;28;20178;-65
2023/07/09 11:08:46;;;;;;;3.47;2.30;;;37.20;71.90;;;;;;5017318;28;20250;-66
2023/07/09 11:11:23;;;;;;;2.72;2.05;;;37.40;72.30;;;;;;5024924;28;20209;-64
2023/07/09 11:13:53;;;;;;;2.92;2.50;;;37.60;70.50;;;;;;5035731;28;20173;-65
2023/07/09 11:16:38;;;;;;;3.13;2.47;;;37.80;68.80;;;;;;5037708;28;20142;-65
2023/07/09 11:19:13;;;;;;;3.85;2.53;;;37.90;63.80;;;;;;5026256;28;20199;-64
2023/07/09 11:22:04;;;;;;;3.22;2.60;;;38.10;65.10;;;;;;4997146;28;20426;-65
2023/07/09 11:24:48;;;;;;;3.13;2.30;;;38.20;62.80;;;;;;5012902;28;20205;-65
2023/07/09 11:27:18;;;;;;;3.20;2.50;;;38.30;62.70;;;;;;5019972;28;20170;-64
2023/07/09 11:29:59;;;;;;;4.78;2.50;;;38.40;63.70;;;;;;5036271;28;20224;-64
2023/07/09 11:32:25;;;;;;;2.88;2.58;;;38.50;60.50;;;;;;5020202;28;20247;-65
2023/07/09 11:34:50;;;;;;;2.92;2.50;;;38.50;61.80;;;;;;5019932;28;20192;-65
2023/07/09 11:37:17;;;;;;;2.97;2.50;;;38.60;61.00;;;;;;5027205;28;20177;-65
2023/07/09 11:39:49;;;;;;;3.83;2.85;;;38.60;59.40;;;;;;5037121;28;20169;-65
2023/07/09 11:42:46;;;;;;;2.70;2.20;;;38.70;58.40;;;;;;5036390;28;20212;-65
2023/07/09 11:45:16;;;;;;;6.03;2.70;;;38.70;57.10;;;;;;5018945;28;20185;-65
2023/07/09 11:47:50;;;;;;;4.25;2.50;;;38.70;58.70;;;;;;5021919;28;20193;-65
2023/07/09 11:50:25;;;;;;;3.15;2.60;;;38.90;56.80;;;;;;5017499;28;20212;-64
2023/07/09 11:53:23;;;;;;;3.35;2.33;;;38.90;55.20;;;;;;5017299;28;20219;-65
2023/07/09 11:55:49;;;;;;;4.50;2.65;;;38.90;56.20;;;;;;4978498;28;20244;-64
2023/07/09 11:58:16;;;;;;;3.25;2.53;;;38.90;56.50;;;;;;5023526;28;20169;-65
2023/07/09 12:00:55;;;;;;;3.00;2.40;;;38.90;55.50;;;;;;5019258;28;20177;-65
2023/07/09 12:03:38;;;;;;;3.97;2.50;;;38.80;55.00;;;;;;5019190;28;20216;-65
2023/07/09 12:06:14;;;;;;;2.78;2.25;;;38.90;54.70;;;;;;5025894;28;20162;-66
2023/07/09 12:08:44;;;;;;;3.08;2.60;;;38.90;55.60;;;;;;5019111;28;20264;-64
2023/07/09 12:11:38;;;;;;;3.28;2.50;;;38.90;55.30;;;;;;5018908;28;20473;-65
2023/07/09 12:14:09;;;;;;;4.57;2.63;;;39.00;54.20;;;;;;5016175;28;20178;-66
2023/07/09 12:16:38;;;;;;;3.20;2.25;;;39.00;54.70;;;;;;5001317;28;20369;-65
2023/07/09 12:19:06;;;;;;;2.92;2.60;;;38.90;53.80;;;;;;5013169;28;20200;-65
2023/07/09 12:21:41;;;;;;;3.00;2.22;;;38.80;53.10;;;;;;5011968;28;20450;-65
2023/07/09 12:24:22;;;;;;;4.43;2.70;;;38.60;52.30;;;;;;5019052;28;20212;-65
2023/07/09 12:26:59;;;;;;;3.88;2.65;;;38.40;52.20;;;;;;5018562;28;20181;-65
2023/07/09 12:29:35;;;;;;;2.83;2.47;;;38.20;52.10;;;;;;5018431;28;20216;-65
2023/07/09 12:32:13;;;;;;;3.25;2.70;;;38.10;50.60;;;;;;5019113;28;20239;-65
2023/07/09 12:34:38;;;;;;;3.05;2.20;;;38.00;50.50;;;;;;5008548;28;20209;-65
2023/07/09 12:37:15;;;;;;;3.10;2.33;;;37.80;51.40;;;;;;4999733;28;20170;-65
2023/07/09 12:39:43;;;;;;;3.58;2.28;;;37.60;50.90;;;;;;5012067;28;20185;-64
2023/07/09 12:42:19;;;;;;;3.92;2.60;;;37.50;51.60;;;;;;5015094;28;20206;-64
2023/07/09 12:44:48;;;;;;;3.58;2.50;;;37.40;51.10;;;;;;5018180;28;20185;-64
2023/07/09 12:47:22;;;;;;;4.03;2.15;;;37.30;51.00;;;;;;4998692;28;20178;-64
2023/07/09 12:49:51;;;;;;;4.35;2.60;;;37.30;51.00;;;;;;5016458;28;20213;-64
2023/07/09 12:52:25;;;;;;;2.40;2.20;;;37.30;51.20;;;;;;5018284;28;20208;-65
2023/07/09 12:55:02;;;;;;;3.78;2.63;;;37.30;50.50;;;;;;5015260;28;20216;-65
2023/07/09 12:57:31;;;;;;;3.25;2.47;;;37.40;50.00;;;;;;5017308;28;20184;-64
2023/07/09 12:59:59;;;;;;;2.55;2.35;;;37.40;50.70;;;;;;5034774;28;20213;-65
2023/07/09 13:02:27;;;;;;;2.65;2.30;;;37.30;50.50;;;;;;5020069;28;20190;-65
2023/07/09 13:05:16;;;;;;;5.07;2.42;;;37.30;50.40;;;;;;5034480;28;20180;-65